sensor_id;sensor_type;location;lat;lon;timestamp;P1;durP1;ratioP1;P2;durP2;ratioP2
16975;SDS011;8604;48.148;-1.786;2023-04-24T00:01:10;8.27;;;3.60;;
16975;SDS011;8604;48.148;-1.786;2023-04-24T00:03:39;8.80;;;3.73;;
16975;SDS011;8604;48.148;-1.786;2023-04-24T00:06:07;8.97;;;3.13;;
16975;SDS011;8604;48.148;-1.786;2023-04-24T00:08:36;9.03;;;3.57;;
16975;SDS011;8604;48.148;-1.786;2023-04-24T00:11:05;9.67;;;3.60;;
16975;SDS011;8604;48.148;-1.786;2023-04-24T00:13:34;6.97;;;3.30;;
16975;SDS011;8604;48.148;-1.786;2023-04-24T00:16:02;7.77;;;3.50;;
16975;SDS011;8604;48.148;-1.786;2023-04-24T00:18:31;9.67;;;3.90;;
16975;SDS011;8604;48.148;-1.786;2023-04-24T00:21:00;9.67;;;4.20;;
16975;SDS011;8604;48.148;-1.786;2023-04-24T00:23:29;8.00;;;3.43;;
16975;SDS011;8604;48.148;-1.786;2023-04-24T00:25:58;8.33;;;3.60;;
16975;SDS011;8604;48.148;-1.786;2023-04-24T00:28:27;9.37;;;4.03;;
16975;SDS011;8604;48.148;-1.786;2023-04-24T00:30:56;9.60;;;4.33;;
16975;SDS011;8604;48.148;-1.786;2023-04-24T00:33:24;8.77;;;3.97;;
16975;SDS011;8604;48.148;-1.786;2023-04-24T00:35:52;8.53;;;3.87;;
16975;SDS011;8604;48.148;-1.786;2023-04-24T00:38:21;7.93;;;3.80;;
16975;SDS011;8604;48.148;-1.786;2023-04-24T00:40:49;7.83;;;3.67;;
16975;SDS011;8604;48.148;-1.786;2023-04-24T00:43:17;9.57;;;3.87;;
16975;SDS011;8604;48.148;-1.786;2023-04-24T00:45:47;8.40;;;4.03;;
16975;SDS011;8604;48.148;-1.786;2023-04-24T00:48:16;7.97;;;3.57;;
16975;SDS011;8604;48.148;-1.786;2023-04-24T00:50:44;8.40;;;4.00;;
16975;SDS011;8604;48.148;-1.786;2023-04-24T00:53:13;9.13;;;3.50;;
16975;SDS011;8604;48.148;-1.786;2023-04-24T00:55:41;9.60;;;3.90;;
16975;SDS011;8604;48.148;-1.786;2023-04-24T00:58:10;9.07;;;3.90;;
16975;SDS011;8604;48.148;-1.786;2023-04-24T01:00:39;10.07;;;4.33;;
16975;SDS011;8604;48.148;-1.786;2023-04-24T01:03:09;7.10;;;3.80;;
16975;SDS011;8604;48.148;-1.786;2023-04-24T01:05:39;9.63;;;3.93;;
16975;SDS011;8604;48.148;-1.786;2023-04-24T01:08:07;7.73;;;4.00;;
16975;SDS011;8604;48.148;-1.786;2023-04-24T01:10:36;8.00;;;4.00;;
16975;SDS011;8604;48.148;-1.786;2023-04-24T01:13:06;7.87;;;3.80;;
16975;SDS011;8604;48.148;-1.786;2023-04-24T01:15:35;11.63;;;4.67;;
16975;SDS011;8604;48.148;-1.786;2023-04-24T01:18:04;8.93;;;4.40;;
16975;SDS011;8604;48.148;-1.786;2023-04-24T01:20:34;8.43;;;4.07;;
16975;SDS011;8604;48.148;-1.786;2023-04-24T01:23:07;9.90;;;4.40;;
16975;SDS011;8604;48.148;-1.786;2023-04-24T01:25:36;11.00;;;4.80;;
16975;SDS011;8604;48.148;-1.786;2023-04-24T01:28:05;9.87;;;4.50;;
16975;SDS011;8604;48.148;-1.786;2023-04-24T01:30:33;12.50;;;4.73;;
16975;SDS011;8604;48.148;-1.786;2023-04-24T01:33:02;6.33;;;3.90;;
16975;SDS011;8604;48.148;-1.786;2023-04-24T01:35:30;11.37;;;4.50;;
16975;SDS011;8604;48.148;-1.786;2023-04-24T01:37:59;8.77;;;4.40;;
16975;SDS011;8604;48.148;-1.786;2023-04-24T01:40:29;9.57;;;4.37;;
16975;SDS011;8604;48.148;-1.786;2023-04-24T01:42:58;8.87;;;4.30;;
16975;SDS011;8604;48.148;-1.786;2023-04-24T01:45:27;9.30;;;4.30;;
16975;SDS011;8604;48.148;-1.786;2023-04-24T01:47:55;9.67;;;4.43;;
16975;SDS011;8604;48.148;-1.786;2023-04-24T01:50:24;10.53;;;4.50;;
16975;SDS011;8604;48.148;-1.786;2023-04-24T01:52:52;10.40;;;3.87;;
16975;SDS011;8604;48.148;-1.786;2023-04-24T01:55:21;9.87;;;4.37;;
16975;SDS011;8604;48.148;-1.786;2023-04-24T01:57:51;8.93;;;4.23;;
16975;SDS011;8604;48.148;-1.786;2023-04-24T02:00:22;10.13;;;4.40;;
16975;SDS011;8604;48.148;-1.786;2023-04-24T02:02:52;9.73;;;3.97;;
16975;SDS011;8604;48.148;-1.786;2023-04-24T02:05:20;7.53;;;3.97;;
16975;SDS011;8604;48.148;-1.786;2023-04-24T02:07:49;10.43;;;4.40;;
16975;SDS011;8604;48.148;-1.786;2023-04-24T02:10:17;9.20;;;3.97;;
16975;SDS011;8604;48.148;-1.786;2023-04-24T02:12:45;11.17;;;4.17;;
16975;SDS011;8604;48.148;-1.786;2023-04-24T02:15:15;10.57;;;4.20;;
16975;SDS011;8604;48.148;-1.786;2023-04-24T02:17:44;9.27;;;3.70;;
16975;SDS011;8604;48.148;-1.786;2023-04-24T02:20:12;8.47;;;3.90;;
16975;SDS011;8604;48.148;-1.786;2023-04-24T02:22:41;9.43;;;4.10;;
16975;SDS011;8604;48.148;-1.786;2023-04-24T02:25:09;9.00;;;4.00;;
16975;SDS011;8604;48.148;-1.786;2023-04-24T02:27:38;9.87;;;4.43;;
16975;SDS011;8604;48.148;-1.786;2023-04-24T02:30:06;8.47;;;3.70;;
16975;SDS011;8604;48.148;-1.786;2023-04-24T02:32:37;7.60;;;4.00;;
16975;SDS011;8604;48.148;-1.786;2023-04-24T02:35:05;12.47;;;3.90;;
16975;SDS011;8604;48.148;-1.786;2023-04-24T02:37:34;10.77;;;3.83;;
16975;SDS011;8604;48.148;-1.786;2023-04-24T02:40:03;8.80;;;4.03;;
16975;SDS011;8604;48.148;-1.786;2023-04-24T02:42:32;11.53;;;4.50;;
16975;SDS011;8604;48.148;-1.786;2023-04-24T02:45:01;9.27;;;3.97;;
16975;SDS011;8604;48.148;-1.786;2023-04-24T02:47:29;9.87;;;3.83;;
16975;SDS011;8604;48.148;-1.786;2023-04-24T02:50:00;9.30;;;3.60;;
16975;SDS011;8604;48.148;-1.786;2023-04-24T02:52:29;8.53;;;3.80;;
16975;SDS011;8604;48.148;-1.786;2023-04-24T02:54:57;6.83;;;3.67;;
16975;SDS011;8604;48.148;-1.786;2023-04-24T02:57:25;10.13;;;4.00;;
16975;SDS011;8604;48.148;-1.786;2023-04-24T02:59:54;8.83;;;3.90;;
16975;SDS011;8604;48.148;-1.786;2023-04-24T03:02:22;7.30;;;3.97;;
16975;SDS011;8604;48.148;-1.786;2023-04-24T03:04:51;10.93;;;4.33;;
16975;SDS011;8604;48.148;-1.786;2023-04-24T03:07:21;8.43;;;3.80;;
16975;SDS011;8604;48.148;-1.786;2023-04-24T03:09:49;9.47;;;4.23;;
16975;SDS011;8604;48.148;-1.786;2023-04-24T03:12:17;10.57;;;4.17;;
16975;SDS011;8604;48.148;-1.786;2023-04-24T03:14:46;7.57;;;4.00;;
16975;SDS011;8604;48.148;-1.786;2023-04-24T03:17:14;11.17;;;4.00;;
16975;SDS011;8604;48.148;-1.786;2023-04-24T03:19:42;9.70;;;4.20;;
16975;SDS011;8604;48.148;-1.786;2023-04-24T03:22:12;10.10;;;4.50;;
16975;SDS011;8604;48.148;-1.786;2023-04-24T03:24:42;11.33;;;4.20;;
16975;SDS011;8604;48.148;-1.786;2023-04-24T03:27:13;12.40;;;4.30;;
16975;SDS011;8604;48.148;-1.786;2023-04-24T03:30:01;10.97;;;3.93;;
16975;SDS011;8604;48.148;-1.786;2023-04-24T03:32:45;11.53;;;4.27;;
16975;SDS011;8604;48.148;-1.786;2023-04-24T03:35:18;9.57;;;4.17;;
16975;SDS011;8604;48.148;-1.786;2023-04-24T03:37:48;9.77;;;4.43;;
16975;SDS011;8604;48.148;-1.786;2023-04-24T03:40:40;8.50;;;3.83;;
16975;SDS011;8604;48.148;-1.786;2023-04-24T03:43:32;9.33;;;3.90;;
16975;SDS011;8604;48.148;-1.786;2023-04-24T03:46:02;9.47;;;3.70;;
16975;SDS011;8604;48.148;-1.786;2023-04-24T03:48:35;6.50;;;3.80;;
16975;SDS011;8604;48.148;-1.786;2023-04-24T03:51:05;10.07;;;4.17;;
16975;SDS011;8604;48.148;-1.786;2023-04-24T03:53:35;9.63;;;4.00;;
16975;SDS011;8604;48.148;-1.786;2023-04-24T03:56:05;11.90;;;4.90;;
16975;SDS011;8604;48.148;-1.786;2023-04-24T03:58:34;7.73;;;4.03;;
16975;SDS011;8604;48.148;-1.786;2023-04-24T04:01:02;10.97;;;4.33;;
16975;SDS011;8604;48.148;-1.786;2023-04-24T04:03:34;9.90;;;4.33;;
16975;SDS011;8604;48.148;-1.786;2023-04-24T04:06:04;9.50;;;4.00;;
16975;SDS011;8604;48.148;-1.786;2023-04-24T04:08:32;10.13;;;4.40;;
16975;SDS011;8604;48.148;-1.786;2023-04-24T04:11:01;10.60;;;4.53;;
16975;SDS011;8604;48.148;-1.786;2023-04-24T04:13:32;10.27;;;4.63;;
16975;SDS011;8604;48.148;-1.786;2023-04-24T04:16:01;10.87;;;4.03;;
16975;SDS011;8604;48.148;-1.786;2023-04-24T04:18:29;10.63;;;4.40;;
16975;SDS011;8604;48.148;-1.786;2023-04-24T04:20:57;12.10;;;4.33;;
16975;SDS011;8604;48.148;-1.786;2023-04-24T04:23:28;11.27;;;4.17;;
16975;SDS011;8604;48.148;-1.786;2023-04-24T04:26:08;11.23;;;4.27;;
16975;SDS011;8604;48.148;-1.786;2023-04-24T04:28:51;9.93;;;4.43;;
16975;SDS011;8604;48.148;-1.786;2023-04-24T04:31:19;10.63;;;4.33;;
16975;SDS011;8604;48.148;-1.786;2023-04-24T04:33:49;12.90;;;4.63;;
16975;SDS011;8604;48.148;-1.786;2023-04-24T04:36:18;10.57;;;4.57;;
16975;SDS011;8604;48.148;-1.786;2023-04-24T04:38:52;12.37;;;4.60;;
16975;SDS011;8604;48.148;-1.786;2023-04-24T04:41:41;9.57;;;3.77;;
16975;SDS011;8604;48.148;-1.786;2023-04-24T04:44:11;11.30;;;4.40;;
16975;SDS011;8604;48.148;-1.786;2023-04-24T04:46:41;9.83;;;4.60;;
16975;SDS011;8604;48.148;-1.786;2023-04-24T04:49:20;9.90;;;3.93;;
16975;SDS011;8604;48.148;-1.786;2023-04-24T04:51:50;10.03;;;4.00;;
16975;SDS011;8604;48.148;-1.786;2023-04-24T04:54:23;10.27;;;4.63;;
16975;SDS011;8604;48.148;-1.786;2023-04-24T04:56:51;7.90;;;4.10;;
16975;SDS011;8604;48.148;-1.786;2023-04-24T04:59:22;12.20;;;4.50;;
16975;SDS011;8604;48.148;-1.786;2023-04-24T05:01:57;9.40;;;4.40;;
16975;SDS011;8604;48.148;-1.786;2023-04-24T05:04:25;10.60;;;4.43;;
16975;SDS011;8604;48.148;-1.786;2023-04-24T05:06:54;9.53;;;4.17;;
16975;SDS011;8604;48.148;-1.786;2023-04-24T05:09:23;9.17;;;4.17;;
16975;SDS011;8604;48.148;-1.786;2023-04-24T05:11:57;9.37;;;4.03;;
16975;SDS011;8604;48.148;-1.786;2023-04-24T05:14:32;10.13;;;4.20;;
16975;SDS011;8604;48.148;-1.786;2023-04-24T05:17:00;9.90;;;4.30;;
16975;SDS011;8604;48.148;-1.786;2023-04-24T05:19:30;11.13;;;4.30;;
16975;SDS011;8604;48.148;-1.786;2023-04-24T05:22:02;10.83;;;4.20;;
16975;SDS011;8604;48.148;-1.786;2023-04-24T05:24:37;9.67;;;4.00;;
16975;SDS011;8604;48.148;-1.786;2023-04-24T05:27:12;11.93;;;4.13;;
16975;SDS011;8604;48.148;-1.786;2023-04-24T05:29:43;11.60;;;4.13;;
16975;SDS011;8604;48.148;-1.786;2023-04-24T05:32:12;10.80;;;4.40;;
16975;SDS011;8604;48.148;-1.786;2023-04-24T05:34:40;10.63;;;4.67;;
16975;SDS011;8604;48.148;-1.786;2023-04-24T05:37:09;10.60;;;4.07;;
16975;SDS011;8604;48.148;-1.786;2023-04-24T05:39:37;12.23;;;4.00;;
16975;SDS011;8604;48.148;-1.786;2023-04-24T05:42:07;8.67;;;3.87;;
16975;SDS011;8604;48.148;-1.786;2023-04-24T05:44:36;8.67;;;4.20;;
16975;SDS011;8604;48.148;-1.786;2023-04-24T05:52:04;9.03;;;4.10;;
16975;SDS011;8604;48.148;-1.786;2023-04-24T05:54:50;7.10;;;3.87;;
16975;SDS011;8604;48.148;-1.786;2023-04-24T05:57:41;10.53;;;4.07;;
16975;SDS011;8604;48.148;-1.786;2023-04-24T06:00:18;6.87;;;4.10;;
16975;SDS011;8604;48.148;-1.786;2023-04-24T06:10:05;12.57;;;4.33;;
16975;SDS011;8604;48.148;-1.786;2023-04-24T06:12:59;14.57;;;4.77;;
16975;SDS011;8604;48.148;-1.786;2023-04-24T06:16:25;8.00;;;4.10;;
16975;SDS011;8604;48.148;-1.786;2023-04-24T06:19:05;7.93;;;4.10;;
16975;SDS011;8604;48.148;-1.786;2023-04-24T06:21:52;8.17;;;3.90;;
16975;SDS011;8604;48.148;-1.786;2023-04-24T06:24:55;6.50;;;3.73;;
16975;SDS011;8604;48.148;-1.786;2023-04-24T06:28:12;10.77;;;4.20;;
16975;SDS011;8604;48.148;-1.786;2023-04-24T06:30:53;9.53;;;3.93;;
16975;SDS011;8604;48.148;-1.786;2023-04-24T06:33:54;8.30;;;3.97;;
16975;SDS011;8604;48.148;-1.786;2023-04-24T06:37:06;9.13;;;4.23;;
16975;SDS011;8604;48.148;-1.786;2023-04-24T06:40:00;8.27;;;3.83;;
16975;SDS011;8604;48.148;-1.786;2023-04-24T06:43:27;9.53;;;3.97;;
16975;SDS011;8604;48.148;-1.786;2023-04-24T06:46:02;7.40;;;3.87;;
16975;SDS011;8604;48.148;-1.786;2023-04-24T06:48:53;9.70;;;4.00;;
16975;SDS011;8604;48.148;-1.786;2023-04-24T06:51:22;7.57;;;3.60;;
16975;SDS011;8604;48.148;-1.786;2023-04-24T06:54:10;7.40;;;3.43;;
16975;SDS011;8604;48.148;-1.786;2023-04-24T06:56:38;8.57;;;3.27;;
16975;SDS011;8604;48.148;-1.786;2023-04-24T06:59:08;8.97;;;3.43;;
16975;SDS011;8604;48.148;-1.786;2023-04-24T07:05:19;10.03;;;3.53;;
16975;SDS011;8604;48.148;-1.786;2023-04-24T07:07:47;7.23;;;3.30;;
16975;SDS011;8604;48.148;-1.786;2023-04-24T07:10:17;6.90;;;3.47;;
16975;SDS011;8604;48.148;-1.786;2023-04-24T07:12:46;5.87;;;3.37;;
16975;SDS011;8604;48.148;-1.786;2023-04-24T07:15:16;8.17;;;3.20;;
16975;SDS011;8604;48.148;-1.786;2023-04-24T07:17:44;7.83;;;3.20;;
16975;SDS011;8604;48.148;-1.786;2023-04-24T07:20:13;6.17;;;2.97;;
16975;SDS011;8604;48.148;-1.786;2023-04-24T07:22:42;8.17;;;3.17;;
16975;SDS011;8604;48.148;-1.786;2023-04-24T07:25:11;6.60;;;3.00;;
16975;SDS011;8604;48.148;-1.786;2023-04-24T07:27:39;7.10;;;3.10;;
16975;SDS011;8604;48.148;-1.786;2023-04-24T07:30:08;7.00;;;3.47;;
16975;SDS011;8604;48.148;-1.786;2023-04-24T07:32:39;7.30;;;3.10;;
16975;SDS011;8604;48.148;-1.786;2023-04-24T07:35:07;6.73;;;3.47;;
16975;SDS011;8604;48.148;-1.786;2023-04-24T07:37:37;6.83;;;3.40;;
16975;SDS011;8604;48.148;-1.786;2023-04-24T07:40:06;9.60;;;3.07;;
16975;SDS011;8604;48.148;-1.786;2023-04-24T07:42:35;8.30;;;3.60;;
16975;SDS011;8604;48.148;-1.786;2023-04-24T07:45:05;7.07;;;2.93;;
16975;SDS011;8604;48.148;-1.786;2023-04-24T07:47:34;7.13;;;2.80;;
16975;SDS011;8604;48.148;-1.786;2023-04-24T07:50:05;6.27;;;3.07;;
16975;SDS011;8604;48.148;-1.786;2023-04-24T07:52:34;5.80;;;2.70;;
16975;SDS011;8604;48.148;-1.786;2023-04-24T07:55:03;6.00;;;3.00;;
16975;SDS011;8604;48.148;-1.786;2023-04-24T07:57:31;5.60;;;2.87;;
16975;SDS011;8604;48.148;-1.786;2023-04-24T08:00:00;4.97;;;2.80;;
16975;SDS011;8604;48.148;-1.786;2023-04-24T08:02:37;5.77;;;2.67;;
16975;SDS011;8604;48.148;-1.786;2023-04-24T08:05:10;7.43;;;2.93;;
16975;SDS011;8604;48.148;-1.786;2023-04-24T08:07:39;6.10;;;2.70;;
16975;SDS011;8604;48.148;-1.786;2023-04-24T08:10:09;4.73;;;2.50;;
16975;SDS011;8604;48.148;-1.786;2023-04-24T08:12:40;4.60;;;3.07;;
16975;SDS011;8604;48.148;-1.786;2023-04-24T08:15:10;5.80;;;2.70;;
16975;SDS011;8604;48.148;-1.786;2023-04-24T08:17:39;7.07;;;2.43;;
16975;SDS011;8604;48.148;-1.786;2023-04-24T08:20:08;6.33;;;2.70;;
16975;SDS011;8604;48.148;-1.786;2023-04-24T08:22:40;6.07;;;2.63;;
16975;SDS011;8604;48.148;-1.786;2023-04-24T08:25:09;5.07;;;2.47;;
16975;SDS011;8604;48.148;-1.786;2023-04-24T08:27:38;7.13;;;2.60;;
16975;SDS011;8604;48.148;-1.786;2023-04-24T08:30:07;4.13;;;2.30;;
16975;SDS011;8604;48.148;-1.786;2023-04-24T08:32:36;5.37;;;2.57;;
16975;SDS011;8604;48.148;-1.786;2023-04-24T08:35:05;5.20;;;2.47;;
16975;SDS011;8604;48.148;-1.786;2023-04-24T08:37:37;5.50;;;2.73;;
16975;SDS011;8604;48.148;-1.786;2023-04-24T08:40:06;6.07;;;2.60;;
16975;SDS011;8604;48.148;-1.786;2023-04-24T08:42:39;4.13;;;2.33;;
16975;SDS011;8604;48.148;-1.786;2023-04-24T08:45:10;5.40;;;2.40;;
16975;SDS011;8604;48.148;-1.786;2023-04-24T08:47:40;5.17;;;2.40;;
16975;SDS011;8604;48.148;-1.786;2023-04-24T08:50:11;5.43;;;2.10;;
16975;SDS011;8604;48.148;-1.786;2023-04-24T08:52:41;7.60;;;2.57;;
16975;SDS011;8604;48.148;-1.786;2023-04-24T08:55:10;6.20;;;2.83;;
16975;SDS011;8604;48.148;-1.786;2023-04-24T08:57:38;5.33;;;2.50;;
16975;SDS011;8604;48.148;-1.786;2023-04-24T09:00:07;5.80;;;2.63;;
16975;SDS011;8604;48.148;-1.786;2023-04-24T09:02:39;5.47;;;2.50;;
16975;SDS011;8604;48.148;-1.786;2023-04-24T09:05:11;6.93;;;2.50;;
16975;SDS011;8604;48.148;-1.786;2023-04-24T09:07:43;5.70;;;2.10;;
16975;SDS011;8604;48.148;-1.786;2023-04-24T09:10:15;6.33;;;2.80;;
16975;SDS011;8604;48.148;-1.786;2023-04-24T09:12:44;5.73;;;2.77;;
16975;SDS011;8604;48.148;-1.786;2023-04-24T09:15:14;4.73;;;2.30;;
16975;SDS011;8604;48.148;-1.786;2023-04-24T09:17:45;7.20;;;2.60;;
16975;SDS011;8604;48.148;-1.786;2023-04-24T09:20:13;4.47;;;2.17;;
16975;SDS011;8604;48.148;-1.786;2023-04-24T09:22:44;8.03;;;2.80;;
16975;SDS011;8604;48.148;-1.786;2023-04-24T09:25:13;6.80;;;2.80;;
16975;SDS011;8604;48.148;-1.786;2023-04-24T09:27:42;7.43;;;2.80;;
16975;SDS011;8604;48.148;-1.786;2023-04-24T09:30:13;9.00;;;3.10;;
16975;SDS011;8604;48.148;-1.786;2023-04-24T09:32:41;7.70;;;2.83;;
16975;SDS011;8604;48.148;-1.786;2023-04-24T09:35:11;8.63;;;2.87;;
16975;SDS011;8604;48.148;-1.786;2023-04-24T09:37:41;7.37;;;3.00;;
16975;SDS011;8604;48.148;-1.786;2023-04-24T09:40:12;6.63;;;2.83;;
16975;SDS011;8604;48.148;-1.786;2023-04-24T09:42:46;8.37;;;3.40;;
16975;SDS011;8604;48.148;-1.786;2023-04-24T09:45:20;7.80;;;3.00;;
16975;SDS011;8604;48.148;-1.786;2023-04-24T09:47:51;10.03;;;3.13;;
16975;SDS011;8604;48.148;-1.786;2023-04-24T09:50:21;8.37;;;2.80;;
16975;SDS011;8604;48.148;-1.786;2023-04-24T09:52:55;7.97;;;2.77;;
16975;SDS011;8604;48.148;-1.786;2023-04-24T09:55:27;6.97;;;2.57;;
16975;SDS011;8604;48.148;-1.786;2023-04-24T09:57:56;13.40;;;3.97;;
16975;SDS011;8604;48.148;-1.786;2023-04-24T10:00:27;10.80;;;2.97;;
16975;SDS011;8604;48.148;-1.786;2023-04-24T10:02:58;7.13;;;2.60;;
16975;SDS011;8604;48.148;-1.786;2023-04-24T10:05:28;7.27;;;2.60;;
16975;SDS011;8604;48.148;-1.786;2023-04-24T10:08:00;8.70;;;2.80;;
16975;SDS011;8604;48.148;-1.786;2023-04-24T10:10:34;8.23;;;2.97;;
16975;SDS011;8604;48.148;-1.786;2023-04-24T10:13:05;10.20;;;3.00;;
16975;SDS011;8604;48.148;-1.786;2023-04-24T10:15:34;9.77;;;2.93;;
16975;SDS011;8604;48.148;-1.786;2023-04-24T10:18:04;8.20;;;2.63;;
16975;SDS011;8604;48.148;-1.786;2023-04-24T10:20:34;6.90;;;2.80;;
16975;SDS011;8604;48.148;-1.786;2023-04-24T10:23:04;7.43;;;2.90;;
16975;SDS011;8604;48.148;-1.786;2023-04-24T10:25:35;9.80;;;3.00;;
16975;SDS011;8604;48.148;-1.786;2023-04-24T10:28:04;7.40;;;3.00;;
16975;SDS011;8604;48.148;-1.786;2023-04-24T10:30:36;8.07;;;2.80;;
16975;SDS011;8604;48.148;-1.786;2023-04-24T10:33:06;6.83;;;3.20;;
16975;SDS011;8604;48.148;-1.786;2023-04-24T10:35:37;8.80;;;2.90;;
16975;SDS011;8604;48.148;-1.786;2023-04-24T10:38:09;7.30;;;3.23;;
16975;SDS011;8604;48.148;-1.786;2023-04-24T10:40:42;8.03;;;3.00;;
16975;SDS011;8604;48.148;-1.786;2023-04-24T10:43:11;12.83;;;3.73;;
16975;SDS011;8604;48.148;-1.786;2023-04-24T10:45:59;9.53;;;3.00;;
16975;SDS011;8604;48.148;-1.786;2023-04-24T10:48:29;8.33;;;3.40;;
16975;SDS011;8604;48.148;-1.786;2023-04-24T10:50:59;9.07;;;3.27;;
16975;SDS011;8604;48.148;-1.786;2023-04-24T10:53:28;6.63;;;2.80;;
16975;SDS011;8604;48.148;-1.786;2023-04-24T10:56:02;6.83;;;3.13;;
16975;SDS011;8604;48.148;-1.786;2023-04-24T10:58:35;7.33;;;2.93;;
16975;SDS011;8604;48.148;-1.786;2023-04-24T11:01:05;6.57;;;2.57;;
16975;SDS011;8604;48.148;-1.786;2023-04-24T11:04:02;6.60;;;2.70;;
16975;SDS011;8604;48.148;-1.786;2023-04-24T11:06:32;7.10;;;3.00;;
16975;SDS011;8604;48.148;-1.786;2023-04-24T11:09:03;8.10;;;3.13;;
16975;SDS011;8604;48.148;-1.786;2023-04-24T11:11:35;8.87;;;3.10;;
16975;SDS011;8604;48.148;-1.786;2023-04-24T11:14:07;9.07;;;3.37;;
16975;SDS011;8604;48.148;-1.786;2023-04-24T11:16:38;8.73;;;3.40;;
16975;SDS011;8604;48.148;-1.786;2023-04-24T11:19:18;10.53;;;3.37;;
16975;SDS011;8604;48.148;-1.786;2023-04-24T11:21:54;9.50;;;3.07;;
16975;SDS011;8604;48.148;-1.786;2023-04-24T11:24:26;9.33;;;3.30;;
16975;SDS011;8604;48.148;-1.786;2023-04-24T11:26:59;7.13;;;2.67;;
16975;SDS011;8604;48.148;-1.786;2023-04-24T11:29:40;9.77;;;3.17;;
16975;SDS011;8604;48.148;-1.786;2023-04-24T11:32:16;8.07;;;2.93;;
16975;SDS011;8604;48.148;-1.786;2023-04-24T11:34:46;8.10;;;3.10;;
16975;SDS011;8604;48.148;-1.786;2023-04-24T11:37:16;8.50;;;2.97;;
16975;SDS011;8604;48.148;-1.786;2023-04-24T11:39:45;6.87;;;2.37;;
16975;SDS011;8604;48.148;-1.786;2023-04-24T11:42:15;7.93;;;2.67;;
16975;SDS011;8604;48.148;-1.786;2023-04-24T11:44:44;7.33;;;2.30;;
16975;SDS011;8604;48.148;-1.786;2023-04-24T11:47:14;5.50;;;2.30;;
16975;SDS011;8604;48.148;-1.786;2023-04-24T11:49:43;6.17;;;2.50;;
16975;SDS011;8604;48.148;-1.786;2023-04-24T11:52:13;7.70;;;2.50;;
16975;SDS011;8604;48.148;-1.786;2023-04-24T11:54:47;8.07;;;2.60;;
16975;SDS011;8604;48.148;-1.786;2023-04-24T11:57:20;8.53;;;2.90;;
16975;SDS011;8604;48.148;-1.786;2023-04-24T11:59:49;7.93;;;2.57;;
16975;SDS011;8604;48.148;-1.786;2023-04-24T12:02:21;7.50;;;2.60;;
16975;SDS011;8604;48.148;-1.786;2023-04-24T12:04:56;7.10;;;2.50;;
16975;SDS011;8604;48.148;-1.786;2023-04-24T12:07:27;6.20;;;2.50;;
16975;SDS011;8604;48.148;-1.786;2023-04-24T12:09:56;9.27;;;2.50;;
16975;SDS011;8604;48.148;-1.786;2023-04-24T12:12:28;7.13;;;2.33;;
16975;SDS011;8604;48.148;-1.786;2023-04-24T12:14:57;7.73;;;2.40;;
16975;SDS011;8604;48.148;-1.786;2023-04-24T12:17:27;5.17;;;2.23;;
16975;SDS011;8604;48.148;-1.786;2023-04-24T12:19:57;7.37;;;2.50;;
16975;SDS011;8604;48.148;-1.786;2023-04-24T12:22:28;7.43;;;2.57;;
16975;SDS011;8604;48.148;-1.786;2023-04-24T12:25:10;7.07;;;2.60;;
16975;SDS011;8604;48.148;-1.786;2023-04-24T12:27:40;8.30;;;2.57;;
16975;SDS011;8604;48.148;-1.786;2023-04-24T12:30:11;9.87;;;2.80;;
16975;SDS011;8604;48.148;-1.786;2023-04-24T12:32:41;7.23;;;3.03;;
16975;SDS011;8604;48.148;-1.786;2023-04-24T12:35:10;6.50;;;2.43;;
16975;SDS011;8604;48.148;-1.786;2023-04-24T12:37:41;7.53;;;2.90;;
16975;SDS011;8604;48.148;-1.786;2023-04-24T12:40:13;7.57;;;2.70;;
16975;SDS011;8604;48.148;-1.786;2023-04-24T12:42:44;6.57;;;2.37;;
16975;SDS011;8604;48.148;-1.786;2023-04-24T12:45:14;8.33;;;2.43;;
16975;SDS011;8604;48.148;-1.786;2023-04-24T12:47:44;8.23;;;2.50;;
16975;SDS011;8604;48.148;-1.786;2023-04-24T12:50:13;9.93;;;2.80;;
16975;SDS011;8604;48.148;-1.786;2023-04-24T12:52:43;5.57;;;2.40;;
16975;SDS011;8604;48.148;-1.786;2023-04-24T12:55:12;8.60;;;2.57;;
16975;SDS011;8604;48.148;-1.786;2023-04-24T12:57:40;7.73;;;2.53;;
16975;SDS011;8604;48.148;-1.786;2023-04-24T13:00:11;9.33;;;3.00;;
16975;SDS011;8604;48.148;-1.786;2023-04-24T13:02:40;6.77;;;2.60;;
16975;SDS011;8604;48.148;-1.786;2023-04-24T13:05:08;7.03;;;2.80;;
16975;SDS011;8604;48.148;-1.786;2023-04-24T13:07:38;7.33;;;2.53;;
16975;SDS011;8604;48.148;-1.786;2023-04-24T13:10:07;7.73;;;2.93;;
16975;SDS011;8604;48.148;-1.786;2023-04-24T13:12:36;6.83;;;2.50;;
16975;SDS011;8604;48.148;-1.786;2023-04-24T13:15:05;9.33;;;2.70;;
16975;SDS011;8604;48.148;-1.786;2023-04-24T13:17:36;11.00;;;3.10;;
16975;SDS011;8604;48.148;-1.786;2023-04-24T13:20:05;7.50;;;2.90;;
16975;SDS011;8604;48.148;-1.786;2023-04-24T13:22:34;9.60;;;3.07;;
16975;SDS011;8604;48.148;-1.786;2023-04-24T13:25:04;8.90;;;2.93;;
16975;SDS011;8604;48.148;-1.786;2023-04-24T13:27:33;8.23;;;2.90;;
16975;SDS011;8604;48.148;-1.786;2023-04-24T13:30:03;8.07;;;2.80;;
16975;SDS011;8604;48.148;-1.786;2023-04-24T13:32:32;8.20;;;2.70;;
16975;SDS011;8604;48.148;-1.786;2023-04-24T13:35:03;8.20;;;2.50;;
16975;SDS011;8604;48.148;-1.786;2023-04-24T13:37:32;8.67;;;2.70;;
16975;SDS011;8604;48.148;-1.786;2023-04-24T13:40:01;8.43;;;2.67;;
16975;SDS011;8604;48.148;-1.786;2023-04-24T13:42:32;11.60;;;3.63;;
16975;SDS011;8604;48.148;-1.786;2023-04-24T13:45:01;9.10;;;2.47;;
16975;SDS011;8604;48.148;-1.786;2023-04-24T13:47:50;7.17;;;2.67;;
16975;SDS011;8604;48.148;-1.786;2023-04-24T13:50:22;23.83;;;5.07;;
16975;SDS011;8604;48.148;-1.786;2023-04-24T13:52:50;7.07;;;2.50;;
16975;SDS011;8604;48.148;-1.786;2023-04-24T13:55:19;5.93;;;2.30;;
16975;SDS011;8604;48.148;-1.786;2023-04-24T13:57:48;8.27;;;2.50;;
16975;SDS011;8604;48.148;-1.786;2023-04-24T14:00:19;9.10;;;2.67;;
16975;SDS011;8604;48.148;-1.786;2023-04-24T14:02:47;6.37;;;2.50;;
16975;SDS011;8604;48.148;-1.786;2023-04-24T14:05:17;8.97;;;2.60;;
16975;SDS011;8604;48.148;-1.786;2023-04-24T14:07:47;7.47;;;2.17;;
16975;SDS011;8604;48.148;-1.786;2023-04-24T14:10:15;7.67;;;2.53;;
16975;SDS011;8604;48.148;-1.786;2023-04-24T14:12:44;9.20;;;2.60;;
16975;SDS011;8604;48.148;-1.786;2023-04-24T14:15:12;6.70;;;2.53;;
16975;SDS011;8604;48.148;-1.786;2023-04-24T14:17:41;6.47;;;2.47;;
16975;SDS011;8604;48.148;-1.786;2023-04-24T14:20:11;9.10;;;3.30;;
16975;SDS011;8604;48.148;-1.786;2023-04-24T14:22:40;8.40;;;2.90;;
16975;SDS011;8604;48.148;-1.786;2023-04-24T14:25:10;6.83;;;2.87;;
16975;SDS011;8604;48.148;-1.786;2023-04-24T14:27:38;6.07;;;2.93;;
16975;SDS011;8604;48.148;-1.786;2023-04-24T14:30:07;6.13;;;2.80;;
16975;SDS011;8604;48.148;-1.786;2023-04-24T14:32:37;8.37;;;3.07;;
16975;SDS011;8604;48.148;-1.786;2023-04-24T14:35:06;7.30;;;2.67;;
16975;SDS011;8604;48.148;-1.786;2023-04-24T14:37:35;8.73;;;2.80;;
16975;SDS011;8604;48.148;-1.786;2023-04-24T14:40:04;6.77;;;2.80;;
16975;SDS011;8604;48.148;-1.786;2023-04-24T14:42:55;7.03;;;2.73;;
16975;SDS011;8604;48.148;-1.786;2023-04-24T14:45:24;8.50;;;3.00;;
16975;SDS011;8604;48.148;-1.786;2023-04-24T14:47:53;9.80;;;3.23;;
16975;SDS011;8604;48.148;-1.786;2023-04-24T14:50:23;10.37;;;3.10;;
16975;SDS011;8604;48.148;-1.786;2023-04-24T14:52:54;9.93;;;3.33;;
16975;SDS011;8604;48.148;-1.786;2023-04-24T14:55:24;8.40;;;2.90;;
16975;SDS011;8604;48.148;-1.786;2023-04-24T14:57:53;8.90;;;3.67;;
16975;SDS011;8604;48.148;-1.786;2023-04-24T15:00:23;8.97;;;3.00;;
16975;SDS011;8604;48.148;-1.786;2023-04-24T15:02:51;9.63;;;2.83;;
16975;SDS011;8604;48.148;-1.786;2023-04-24T15:05:22;8.77;;;2.50;;
16975;SDS011;8604;48.148;-1.786;2023-04-24T15:07:52;7.50;;;2.30;;
16975;SDS011;8604;48.148;-1.786;2023-04-24T15:10:20;6.90;;;2.30;;
16975;SDS011;8604;48.148;-1.786;2023-04-24T15:12:52;7.67;;;2.50;;
16975;SDS011;8604;48.148;-1.786;2023-04-24T15:15:23;10.80;;;2.73;;
16975;SDS011;8604;48.148;-1.786;2023-04-24T15:17:52;5.93;;;2.33;;
16975;SDS011;8604;48.148;-1.786;2023-04-24T15:20:20;6.50;;;2.40;;
16975;SDS011;8604;48.148;-1.786;2023-04-24T15:22:51;6.00;;;2.30;;
16975;SDS011;8604;48.148;-1.786;2023-04-24T15:25:19;7.63;;;2.50;;
16975;SDS011;8604;48.148;-1.786;2023-04-24T15:27:48;5.50;;;2.30;;